createdAt,value
2022-11-05T00:04:59.511Z,993.75
2022-11-05T00:09:59.247Z,993.83
2022-11-05T00:15:06.991Z,993.91
2022-11-05T00:20:06.598Z,994.00
2022-11-05T00:24:59.214Z,994.02
2022-11-05T00:29:59.101Z,994.08
2022-11-05T00:34:58.995Z,994.12
2022-11-05T00:39:58.920Z,994.10
2022-11-05T00:44:58.907Z,994.16
2022-11-05T00:49:58.755Z,994.21
2022-11-05T00:55:01.790Z,994.24
2022-11-05T00:59:58.671Z,994.25
2022-11-05T01:04:58.581Z,994.29
2022-11-05T01:09:58.484Z,994.34
2022-11-05T01:14:58.541Z,994.35
2022-11-05T01:19:58.442Z,994.38
2022-11-05T01:24:58.332Z,994.41
2022-11-05T01:29:58.212Z,994.45
2022-11-05T01:34:58.271Z,994.55
2022-11-05T01:39:58.106Z,994.63
2022-11-05T01:44:58.055Z,994.70
2022-11-05T01:49:58.027Z,994.73
2022-11-05T01:55:00.940Z,994.77
2022-11-05T01:59:57.855Z,994.82
2022-11-05T02:04:57.875Z,994.90
2022-11-05T02:09:57.809Z,994.94
2022-11-05T02:14:57.741Z,994.97
2022-11-05T02:19:57.590Z,994.98
2022-11-05T02:24:57.587Z,994.99
2022-11-05T02:29:57.673Z,995.10
2022-11-05T02:34:57.416Z,995.14
2022-11-05T02:39:57.316Z,995.07
2022-11-05T02:44:57.286Z,995.09
2022-11-05T02:49:57.230Z,995.10
2022-11-05T02:55:00.170Z,995.02
2022-11-05T02:59:57.131Z,995.04
2022-11-05T03:04:57.040Z,995.07
2022-11-05T03:09:56.926Z,995.23
2022-11-05T03:14:57.005Z,995.28
2022-11-05T03:19:56.795Z,995.34
2022-11-05T03:24:56.841Z,995.38
2022-11-05T03:29:56.704Z,995.41
2022-11-05T03:34:56.770Z,995.49
2022-11-05T03:39:56.630Z,995.47
2022-11-05T03:44:56.527Z,995.54
2022-11-05T03:49:56.424Z,995.66
2022-11-05T03:54:59.406Z,995.74
2022-11-05T03:59:56.314Z,995.83
2022-11-05T04:04:56.314Z,995.85
2022-11-05T04:09:56.155Z,995.86
2022-11-05T04:14:56.132Z,995.88
2022-11-05T04:19:56.094Z,995.97
2022-11-05T04:24:56.080Z,996.00
2022-11-05T04:29:55.993Z,996.05
2022-11-05T04:34:55.886Z,996.06
2022-11-05T04:39:55.852Z,996.09
2022-11-05T04:44:55.754Z,996.20
2022-11-05T04:49:55.701Z,996.27
2022-11-05T04:54:58.676Z,996.26
2022-11-05T04:59:55.525Z,996.27
2022-11-05T05:04:55.494Z,996.30
2022-11-05T05:09:55.535Z,996.30
2022-11-05T05:15:03.290Z,996.33
2022-11-05T05:19:55.462Z,996.29
2022-11-05T05:24:55.215Z,996.31
2022-11-05T05:29:55.121Z,996.31
2022-11-05T05:34:55.169Z,996.40
2022-11-05T05:39:55.320Z,996.41
2022-11-05T05:44:54.963Z,996.53
2022-11-05T05:49:54.864Z,996.72
2022-11-05T05:54:57.850Z,996.84
2022-11-05T05:59:54.755Z,996.90
2022-11-05T06:04:54.946Z,996.90
2022-11-05T06:09:54.609Z,996.94
2022-11-05T06:14:54.715Z,996.97
2022-11-05T06:19:54.472Z,997.12
2022-11-05T06:24:54.505Z,997.23
2022-11-05T06:29:54.416Z,997.18
2022-11-05T06:34:54.325Z,997.28
2022-11-05T06:39:54.222Z,997.38
2022-11-05T06:44:54.241Z,997.53
2022-11-05T06:49:54.163Z,997.68
2022-11-05T06:54:57.063Z,997.70
2022-11-05T06:59:59.973Z,997.90
2022-11-05T07:04:54.944Z,997.93
2022-11-05T07:09:53.894Z,997.93
2022-11-05T07:14:53.915Z,997.91
2022-11-05T07:19:53.699Z,998.01
2022-11-05T07:24:53.901Z,998.08
2022-11-05T07:29:53.554Z,998.06
2022-11-05T07:34:53.575Z,998.09
2022-11-05T07:39:53.459Z,998.10
2022-11-05T07:44:53.419Z,998.12
2022-11-05T07:49:53.349Z,998.14
2022-11-05T07:54:56.373Z,998.23
2022-11-05T07:59:53.317Z,998.21
2022-11-05T08:04:53.188Z,998.25
2022-11-05T08:09:53.060Z,998.25
2022-11-05T08:14:53.092Z,998.28
2022-11-05T08:19:53.020Z,998.33
2022-11-05T08:24:52.890Z,998.46
2022-11-05T08:29:52.880Z,998.49
2022-11-05T08:34:52.793Z,998.48
2022-11-05T08:39:52.740Z,998.53
2022-11-05T08:44:52.646Z,998.69
2022-11-05T08:49:52.608Z,998.82
2022-11-05T08:54:59.672Z,998.78
2022-11-05T08:59:52.496Z,998.66
2022-11-05T09:04:52.345Z,998.72
2022-11-05T09:09:52.273Z,998.80
2022-11-05T09:14:52.273Z,998.83
2022-11-05T09:19:52.161Z,998.83
2022-11-05T09:24:52.609Z,998.85
2022-11-05T09:29:52.047Z,998.95
2022-11-05T09:34:52.099Z,999.00
2022-11-05T09:39:51.846Z,999.03
2022-11-05T09:44:51.805Z,999.07
2022-11-05T09:49:51.727Z,999.14
2022-11-05T09:54:54.741Z,999.21
2022-11-05T09:59:51.624Z,999.27
2022-11-05T10:05:03.648Z,999.21
2022-11-05T10:09:52.484Z,999.24
2022-11-05T10:14:51.584Z,999.20
2022-11-05T10:19:51.365Z,999.17
2022-11-05T10:24:51.442Z,999.15
2022-11-05T10:29:51.250Z,999.07
2022-11-05T10:34:51.177Z,999.11
2022-11-05T10:39:51.111Z,999.13
2022-11-05T10:44:51.124Z,999.10
2022-11-05T10:49:51.021Z,999.15
2022-11-05T10:54:53.951Z,999.16
2022-11-05T10:59:50.900Z,999.21
2022-11-05T11:04:50.926Z,999.23
2022-11-05T11:09:50.665Z,999.28
2022-11-05T11:14:50.694Z,999.29
2022-11-05T11:19:50.596Z,999.33
2022-11-05T11:24:50.550Z,999.33
2022-11-05T11:29:50.403Z,999.37
2022-11-05T11:34:50.413Z,999.36
2022-11-05T11:39:50.340Z,999.34
2022-11-05T11:44:50.271Z,999.30
2022-11-05T11:49:50.148Z,999.25
2022-11-05T11:54:53.169Z,999.21
2022-11-05T12:04:51.138Z,999.16
2022-11-05T12:09:49.911Z,999.17
2022-11-05T12:14:50.013Z,999.21
2022-11-05T12:19:49.843Z,999.18
2022-11-05T12:24:49.832Z,999.17
2022-11-05T12:29:57.596Z,999.17
2022-11-05T12:34:49.586Z,999.23
2022-11-05T12:39:49.706Z,999.21
2022-11-05T12:44:49.466Z,999.23
2022-11-05T12:49:49.445Z,999.26
2022-11-05T12:54:52.600Z,999.34
2022-11-05T12:59:49.270Z,999.19
2022-11-05T13:04:49.475Z,999.19
2022-11-05T13:09:49.164Z,999.18
2022-11-05T13:14:49.130Z,999.16
2022-11-05T13:19:48.995Z,999.16
2022-11-05T13:24:48.994Z,999.22
2022-11-05T13:29:48.855Z,999.29
2022-11-05T13:34:48.883Z,999.31
2022-11-05T13:39:48.733Z,999.32
2022-11-05T13:44:48.707Z,999.27
2022-11-05T13:49:48.600Z,999.37
2022-11-05T13:54:51.565Z,999.35
2022-11-05T13:59:48.492Z,999.30
2022-11-05T14:04:48.591Z,999.32
2022-11-05T14:09:48.340Z,999.30
2022-11-05T14:14:48.295Z,999.31
2022-11-05T14:19:48.247Z,999.29
2022-11-05T14:24:48.177Z,999.28
2022-11-05T14:29:48.066Z,999.24
2022-11-05T14:34:48.067Z,999.30
2022-11-05T14:39:48.072Z,999.37
2022-11-05T14:44:48.904Z,999.42
2022-11-05T14:49:48.131Z,999.50
2022-11-05T14:54:58.393Z,999.47
2022-11-05T14:59:55.173Z,999.56
2022-11-05T15:04:47.966Z,999.59
2022-11-05T15:09:47.562Z,999.65
2022-11-05T15:14:47.482Z,999.70
2022-11-05T15:19:47.377Z,999.70
2022-11-05T15:24:47.365Z,999.74
2022-11-05T15:29:47.255Z,999.76
2022-11-05T15:34:47.322Z,999.81
2022-11-05T15:39:47.407Z,999.86
2022-11-05T15:44:47.198Z,999.86
2022-11-05T15:49:47.084Z,999.96
2022-11-05T15:54:50.575Z,1000.07
2022-11-05T15:59:47.096Z,1000.05
2022-11-05T16:04:46.912Z,1000.13
2022-11-05T16:09:46.879Z,1000.14
2022-11-05T16:14:46.790Z,1000.18
2022-11-05T16:19:46.700Z,1000.17
2022-11-05T16:24:47.782Z,1000.20
2022-11-05T16:29:47.642Z,1000.22
2022-11-05T16:34:48.021Z,1000.25
2022-11-05T16:39:46.373Z,1000.28
2022-11-05T16:44:46.374Z,1000.45
2022-11-05T16:49:46.285Z,1000.47
2022-11-05T16:54:49.185Z,1000.52
2022-11-05T16:59:46.116Z,1000.64
2022-11-05T17:04:46.231Z,1000.69
2022-11-05T17:09:46.029Z,1000.60
2022-11-05T17:14:46.105Z,1000.71
2022-11-05T17:19:45.834Z,1000.86
2022-11-05T17:24:45.840Z,1000.92
2022-11-05T17:29:45.795Z,1000.96
2022-11-05T17:34:45.716Z,1001.00
2022-11-05T17:39:45.732Z,1000.99
2022-11-05T17:44:45.706Z,1001.05
2022-11-05T17:49:45.583Z,1001.11
2022-11-05T17:54:56.628Z,1001.17
2022-11-05T17:59:45.501Z,1001.16
2022-11-05T18:04:45.307Z,1001.21
2022-11-05T18:09:45.226Z,1001.23
2022-11-05T18:14:57.308Z,1001.25
2022-11-05T18:22:08.965Z,1001.38
2022-11-05T18:27:09.015Z,1001.44
2022-11-05T18:32:09.075Z,1001.43
2022-11-05T18:39:15.589Z,1001.45
2022-11-05T18:44:15.364Z,1001.45
2022-11-05T18:49:15.465Z,1001.40
2022-11-05T18:54:15.368Z,1001.32
2022-11-05T18:59:35.905Z,1001.38
2022-11-05T19:04:16.132Z,1001.33
2022-11-05T19:09:15.063Z,1001.31
2022-11-05T19:14:15.057Z,1001.28
2022-11-05T19:19:14.998Z,1001.39
2022-11-05T19:24:17.981Z,1001.47
2022-11-05T19:29:17.925Z,1001.46
2022-11-05T19:34:14.961Z,1001.42
2022-11-05T19:39:14.700Z,1001.43
2022-11-05T19:44:22.966Z,1001.42
2022-11-05T19:49:14.521Z,1001.47
2022-11-05T19:54:14.480Z,1001.47
2022-11-05T19:59:14.381Z,1001.45
2022-11-05T20:04:14.408Z,1001.49
2022-11-05T20:09:21.758Z,1001.59
2022-11-05T20:14:15.267Z,1001.54
2022-11-05T20:19:14.158Z,1001.59
2022-11-05T20:24:17.486Z,1001.70
2022-11-05T20:29:18.152Z,1001.86
2022-11-05T20:34:14.017Z,1001.85
2022-11-05T20:39:14.005Z,1001.83
2022-11-05T20:44:13.980Z,1001.76
2022-11-05T20:49:13.932Z,1001.75
2022-11-05T20:54:13.725Z,1001.80
2022-11-05T20:59:13.779Z,1001.83
2022-11-05T21:04:13.605Z,1001.85
2022-11-05T21:09:13.505Z,1001.84
2022-11-05T21:14:13.570Z,1001.91
2022-11-05T21:19:13.645Z,1002.00
2022-11-05T21:24:13.675Z,1001.97
2022-11-05T21:29:16.644Z,1001.93
2022-11-05T21:34:13.202Z,1001.99
2022-11-05T21:39:13.957Z,1001.90
2022-11-05T21:44:13.050Z,1001.87
2022-11-05T21:49:13.261Z,1001.79
2022-11-05T21:54:12.880Z,1001.85
2022-11-05T21:59:12.974Z,1001.86
2022-11-05T22:04:12.747Z,1001.85
2022-11-05T22:09:12.820Z,1001.77
2022-11-05T22:14:12.720Z,1001.76
2022-11-05T22:19:20.725Z,1001.71
2022-11-05T22:24:12.550Z,1001.73
2022-11-05T22:29:15.639Z,1001.72
2022-11-05T22:34:12.570Z,1001.75
2022-11-05T22:39:12.479Z,1001.77
2022-11-05T22:44:12.236Z,1001.80
2022-11-05T22:49:12.388Z,1001.72
2022-11-05T22:54:12.215Z,1001.62
2022-11-05T22:59:12.226Z,1001.64
2022-11-05T23:09:01.324Z,1001.58
2022-11-05T23:14:09.166Z,1001.60
2022-11-05T23:19:01.020Z,1001.67
2022-11-05T23:24:00.965Z,1001.66
2022-11-05T23:29:01.059Z,1001.68
2022-11-05T23:34:00.899Z,1001.60
2022-11-05T23:39:00.809Z,1001.58
2022-11-05T23:44:00.726Z,1001.64
2022-11-05T23:49:00.634Z,1001.65
2022-11-05T23:54:00.705Z,1001.71
2022-11-05T23:59:04.024Z,1001.67
